sensor_id;sensor_type;location;lat;lon;timestamp;temperature;humidity
18126;DHT22;53956;52.442;13.284;2022-08-21T00:00:05;23.30;99.90
18126;DHT22;53956;52.442;13.284;2022-08-21T00:02:45;23.30;99.90
18126;DHT22;53956;52.442;13.284;2022-08-21T00:05:12;23.30;99.90
18126;DHT22;53956;52.442;13.284;2022-08-21T00:07:40;23.30;99.90
18126;DHT22;53956;52.442;13.284;2022-08-21T00:10:08;23.40;99.90
18126;DHT22;53956;52.442;13.284;2022-08-21T00:12:34;23.30;99.90
18126;DHT22;53956;52.442;13.284;2022-08-21T00:15:01;23.30;99.90
18126;DHT22;53956;52.442;13.284;2022-08-21T00:17:29;23.40;99.90
18126;DHT22;53956;52.442;13.284;2022-08-21T00:19:55;23.30;99.90
18126;DHT22;53956;52.442;13.284;2022-08-21T00:22:22;23.30;99.90
18126;DHT22;53956;52.442;13.284;2022-08-21T00:24:50;23.30;99.90
18126;DHT22;53956;52.442;13.284;2022-08-21T00:27:16;23.30;99.90
18126;DHT22;53956;52.442;13.284;2022-08-21T00:29:43;23.20;99.90
18126;DHT22;53956;52.442;13.284;2022-08-21T00:32:10;23.30;99.90
18126;DHT22;53956;52.442;13.284;2022-08-21T00:34:36;23.30;99.90
18126;DHT22;53956;52.442;13.284;2022-08-21T00:37:03;23.30;99.90
18126;DHT22;53956;52.442;13.284;2022-08-21T00:39:29;23.30;99.90
18126;DHT22;53956;52.442;13.284;2022-08-21T00:41:57;23.30;99.90
18126;DHT22;53956;52.442;13.284;2022-08-21T00:44:24;23.30;99.90
18126;DHT22;53956;52.442;13.284;2022-08-21T00:46:51;23.30;99.90
18126;DHT22;53956;52.442;13.284;2022-08-21T00:49:18;23.30;99.90
18126;DHT22;53956;52.442;13.284;2022-08-21T00:51:50;23.30;99.90
18126;DHT22;53956;52.442;13.284;2022-08-21T00:54:17;23.20;99.90
18126;DHT22;53956;52.442;13.284;2022-08-21T00:56:46;23.30;99.90
18126;DHT22;53956;52.442;13.284;2022-08-21T00:59:16;23.20;99.90
18126;DHT22;53956;52.442;13.284;2022-08-21T01:01:43;23.20;99.90
18126;DHT22;53956;52.442;13.284;2022-08-21T01:04:09;23.20;99.90
18126;DHT22;53956;52.442;13.284;2022-08-21T01:06:36;23.30;99.90
18126;DHT22;53956;52.442;13.284;2022-08-21T01:09:03;23.50;99.90
18126;DHT22;53956;52.442;13.284;2022-08-21T01:11:30;23.40;99.90
18126;DHT22;53956;52.442;13.284;2022-08-21T01:13:57;23.50;99.90
18126;DHT22;53956;52.442;13.284;2022-08-21T01:16:25;23.60;99.90
18126;DHT22;53956;52.442;13.284;2022-08-21T01:18:51;23.50;99.90
18126;DHT22;53956;52.442;13.284;2022-08-21T01:21:22;23.50;99.90
18126;DHT22;53956;52.442;13.284;2022-08-21T01:23:51;23.40;99.90
18126;DHT22;53956;52.442;13.284;2022-08-21T01:26:22;23.40;99.90
18126;DHT22;53956;52.442;13.284;2022-08-21T01:28:54;23.40;99.90
18126;DHT22;53956;52.442;13.284;2022-08-21T01:31:25;23.40;99.90
18126;DHT22;53956;52.442;13.284;2022-08-21T01:33:53;23.20;99.90
18126;DHT22;53956;52.442;13.284;2022-08-21T01:36:22;23.10;99.90
18126;DHT22;53956;52.442;13.284;2022-08-21T01:38:49;23.10;99.90
18126;DHT22;53956;52.442;13.284;2022-08-21T01:41:16;23.10;99.90
18126;DHT22;53956;52.442;13.284;2022-08-21T01:43:43;23.00;99.90
18126;DHT22;53956;52.442;13.284;2022-08-21T01:46:11;23.00;99.90
18126;DHT22;53956;52.442;13.284;2022-08-21T01:48:39;22.90;99.90
18126;DHT22;53956;52.442;13.284;2022-08-21T01:51:05;23.00;99.90
18126;DHT22;53956;52.442;13.284;2022-08-21T01:53:34;23.00;99.90
18126;DHT22;53956;52.442;13.284;2022-08-21T01:56:03;22.90;99.90
18126;DHT22;53956;52.442;13.284;2022-08-21T01:58:30;22.90;99.90
18126;DHT22;53956;52.442;13.284;2022-08-21T02:00:59;22.90;99.90
18126;DHT22;53956;52.442;13.284;2022-08-21T02:03:27;22.90;99.90
18126;DHT22;53956;52.442;13.284;2022-08-21T02:05:53;22.90;99.90
18126;DHT22;53956;52.442;13.284;2022-08-21T02:08:21;22.90;99.90
18126;DHT22;53956;52.442;13.284;2022-08-21T02:10:50;22.80;99.90
18126;DHT22;53956;52.442;13.284;2022-08-21T02:13:18;22.90;99.90
18126;DHT22;53956;52.442;13.284;2022-08-21T02:15:44;22.90;99.90
18126;DHT22;53956;52.442;13.284;2022-08-21T02:18:11;22.70;99.90
18126;DHT22;53956;52.442;13.284;2022-08-21T02:20:40;22.70;99.90
18126;DHT22;53956;52.442;13.284;2022-08-21T02:23:09;22.80;99.90
18126;DHT22;53956;52.442;13.284;2022-08-21T02:25:37;22.70;99.90
18126;DHT22;53956;52.442;13.284;2022-08-21T02:28:07;22.70;99.90
18126;DHT22;53956;52.442;13.284;2022-08-21T02:30:36;22.70;99.90
18126;DHT22;53956;52.442;13.284;2022-08-21T02:33:04;22.70;99.90
18126;DHT22;53956;52.442;13.284;2022-08-21T02:35:31;22.70;99.90
18126;DHT22;53956;52.442;13.284;2022-08-21T02:38:00;22.60;99.90
18126;DHT22;53956;52.442;13.284;2022-08-21T02:40:29;22.60;99.90
18126;DHT22;53956;52.442;13.284;2022-08-21T02:42:56;22.50;99.90
18126;DHT22;53956;52.442;13.284;2022-08-21T02:45:25;22.60;99.90
18126;DHT22;53956;52.442;13.284;2022-08-21T02:47:56;22.60;99.90
18126;DHT22;53956;52.442;13.284;2022-08-21T02:50:25;22.60;99.90
18126;DHT22;53956;52.442;13.284;2022-08-21T02:52:52;22.60;99.90
18126;DHT22;53956;52.442;13.284;2022-08-21T02:55:20;22.60;99.90
18126;DHT22;53956;52.442;13.284;2022-08-21T02:57:47;22.50;99.90
18126;DHT22;53956;52.442;13.284;2022-08-21T03:00:15;22.40;99.90
18126;DHT22;53956;52.442;13.284;2022-08-21T03:02:43;22.50;99.90
18126;DHT22;53956;52.442;13.284;2022-08-21T03:05:12;22.50;99.90
18126;DHT22;53956;52.442;13.284;2022-08-21T03:07:40;22.50;99.90
18126;DHT22;53956;52.442;13.284;2022-08-21T03:10:08;22.40;99.40
18126;DHT22;53956;52.442;13.284;2022-08-21T03:12:36;22.40;99.00
18126;DHT22;53956;52.442;13.284;2022-08-21T03:15:03;22.30;98.80
18126;DHT22;53956;52.442;13.284;2022-08-21T03:17:30;22.20;99.20
18126;DHT22;53956;52.442;13.284;2022-08-21T03:19:58;22.30;99.00
18126;DHT22;53956;52.442;13.284;2022-08-21T03:22:26;22.30;98.70
18126;DHT22;53956;52.442;13.284;2022-08-21T03:24:53;22.40;98.90
18126;DHT22;53956;52.442;13.284;2022-08-21T03:27:19;22.20;99.10
18126;DHT22;53956;52.442;13.284;2022-08-21T03:29:46;22.30;98.50
18126;DHT22;53956;52.442;13.284;2022-08-21T03:32:13;22.30;97.50
18126;DHT22;53956;52.442;13.284;2022-08-21T03:34:39;22.40;98.10
18126;DHT22;53956;52.442;13.284;2022-08-21T03:37:08;22.30;97.60
18126;DHT22;53956;52.442;13.284;2022-08-21T03:39:36;22.20;97.90
18126;DHT22;53956;52.442;13.284;2022-08-21T03:42:03;22.20;97.90
18126;DHT22;53956;52.442;13.284;2022-08-21T03:44:30;22.20;98.00
18126;DHT22;53956;52.442;13.284;2022-08-21T03:46:57;22.20;98.20
18126;DHT22;53956;52.442;13.284;2022-08-21T03:49:25;22.10;98.40
18126;DHT22;53956;52.442;13.284;2022-08-21T03:51:51;22.20;98.20
18126;DHT22;53956;52.442;13.284;2022-08-21T03:54:19;22.10;98.60
18126;DHT22;53956;52.442;13.284;2022-08-21T03:56:46;22.10;98.30
18126;DHT22;53956;52.442;13.284;2022-08-21T03:59:13;22.10;98.20
18126;DHT22;53956;52.442;13.284;2022-08-21T04:01:40;22.20;98.10
18126;DHT22;53956;52.442;13.284;2022-08-21T04:04:16;22.00;97.80
18126;DHT22;53956;52.442;13.284;2022-08-21T04:06:43;22.00;97.80
18126;DHT22;53956;52.442;13.284;2022-08-21T04:09:09;22.00;97.70
18126;DHT22;53956;52.442;13.284;2022-08-21T04:11:37;21.90;97.50
18126;DHT22;53956;52.442;13.284;2022-08-21T04:14:04;22.00;97.70
18126;DHT22;53956;52.442;13.284;2022-08-21T04:16:31;22.00;97.70
18126;DHT22;53956;52.442;13.284;2022-08-21T04:18:57;21.90;97.30
18126;DHT22;53956;52.442;13.284;2022-08-21T04:21:24;21.90;97.50
18126;DHT22;53956;52.442;13.284;2022-08-21T04:23:51;22.00;96.80
18126;DHT22;53956;52.442;13.284;2022-08-21T04:26:19;21.80;96.70
18126;DHT22;53956;52.442;13.284;2022-08-21T04:28:47;21.90;97.00
18126;DHT22;53956;52.442;13.284;2022-08-21T04:31:14;21.90;97.20
18126;DHT22;53956;52.442;13.284;2022-08-21T04:33:41;22.00;96.70
18126;DHT22;53956;52.442;13.284;2022-08-21T04:36:08;21.90;97.10
18126;DHT22;53956;52.442;13.284;2022-08-21T04:38:35;21.80;97.20
18126;DHT22;53956;52.442;13.284;2022-08-21T04:41:02;21.90;97.20
18126;DHT22;53956;52.442;13.284;2022-08-21T04:43:30;21.90;96.70
18126;DHT22;53956;52.442;13.284;2022-08-21T04:45:58;21.80;97.50
18126;DHT22;53956;52.442;13.284;2022-08-21T04:48:26;21.90;97.50
18126;DHT22;53956;52.442;13.284;2022-08-21T04:50:56;21.80;96.70
18126;DHT22;53956;52.442;13.284;2022-08-21T04:53:35;21.80;97.10
18126;DHT22;53956;52.442;13.284;2022-08-21T04:56:06;21.90;96.80
18126;DHT22;53956;52.442;13.284;2022-08-21T04:58:35;21.80;96.70
18126;DHT22;53956;52.442;13.284;2022-08-21T05:01:07;21.90;96.50
18126;DHT22;53956;52.442;13.284;2022-08-21T05:03:35;21.90;96.60
18126;DHT22;53956;52.442;13.284;2022-08-21T05:06:04;21.80;96.30
18126;DHT22;53956;52.442;13.284;2022-08-21T05:08:31;21.90;96.60
18126;DHT22;53956;52.442;13.284;2022-08-21T05:10:58;21.90;96.70
18126;DHT22;53956;52.442;13.284;2022-08-21T05:13:25;21.90;96.00
18126;DHT22;53956;52.442;13.284;2022-08-21T05:15:51;21.80;96.30
18126;DHT22;53956;52.442;13.284;2022-08-21T05:18:20;21.80;96.30
18126;DHT22;53956;52.442;13.284;2022-08-21T05:20:46;21.80;95.90
18126;DHT22;53956;52.442;13.284;2022-08-21T05:23:14;21.80;96.30
18126;DHT22;53956;52.442;13.284;2022-08-21T05:25:41;21.80;96.20
18126;DHT22;53956;52.442;13.284;2022-08-21T05:28:09;21.90;96.30
18126;DHT22;53956;52.442;13.284;2022-08-21T05:30:37;21.80;95.70
18126;DHT22;53956;52.442;13.284;2022-08-21T05:33:05;21.80;95.20
18126;DHT22;53956;52.442;13.284;2022-08-21T05:35:34;21.90;95.20
18126;DHT22;53956;52.442;13.284;2022-08-21T05:38:00;21.80;95.20
18126;DHT22;53956;52.442;13.284;2022-08-21T05:40:27;21.80;95.30
18126;DHT22;53956;52.442;13.284;2022-08-21T05:42:55;21.90;94.90
18126;DHT22;53956;52.442;13.284;2022-08-21T05:45:23;21.90;95.50
18126;DHT22;53956;52.442;13.284;2022-08-21T05:47:50;21.90;95.20
18126;DHT22;53956;52.442;13.284;2022-08-21T05:50:17;21.80;95.10
18126;DHT22;53956;52.442;13.284;2022-08-21T05:52:45;21.90;94.90
18126;DHT22;53956;52.442;13.284;2022-08-21T05:55:12;21.90;94.70
18126;DHT22;53956;52.442;13.284;2022-08-21T05:57:38;21.90;94.40
18126;DHT22;53956;52.442;13.284;2022-08-21T06:00:07;22.00;94.30
18126;DHT22;53956;52.442;13.284;2022-08-21T06:02:38;21.90;94.50
18126;DHT22;53956;52.442;13.284;2022-08-21T06:05:05;21.90;94.60
18126;DHT22;53956;52.442;13.284;2022-08-21T06:07:32;22.00;94.30
18126;DHT22;53956;52.442;13.284;2022-08-21T06:10:00;22.00;93.40
18126;DHT22;53956;52.442;13.284;2022-08-21T06:12:27;22.00;93.90
18126;DHT22;53956;52.442;13.284;2022-08-21T06:14:54;22.10;93.00
18126;DHT22;53956;52.442;13.284;2022-08-21T06:17:20;22.10;92.50
18126;DHT22;53956;52.442;13.284;2022-08-21T06:19:51;22.20;92.80
18126;DHT22;53956;52.442;13.284;2022-08-21T06:22:17;22.10;92.80
18126;DHT22;53956;52.442;13.284;2022-08-21T06:24:44;22.20;93.60
18126;DHT22;53956;52.442;13.284;2022-08-21T06:27:12;22.30;92.60
18126;DHT22;53956;52.442;13.284;2022-08-21T06:29:39;22.30;92.00
18126;DHT22;53956;52.442;13.284;2022-08-21T06:32:05;22.40;92.40
18126;DHT22;53956;52.442;13.284;2022-08-21T06:34:36;22.30;91.90
18126;DHT22;53956;52.442;13.284;2022-08-21T06:37:03;22.40;91.40
18126;DHT22;53956;52.442;13.284;2022-08-21T06:39:30;22.30;92.30
18126;DHT22;53956;52.442;13.284;2022-08-21T06:41:58;22.30;92.70
18126;DHT22;53956;52.442;13.284;2022-08-21T06:44:29;22.40;92.60
18126;DHT22;53956;52.442;13.284;2022-08-21T06:46:56;22.50;92.30
18126;DHT22;53956;52.442;13.284;2022-08-21T06:49:22;22.60;91.80
18126;DHT22;53956;52.442;13.284;2022-08-21T06:51:49;22.70;92.30
18126;DHT22;53956;52.442;13.284;2022-08-21T06:54:16;22.70;91.70
18126;DHT22;53956;52.442;13.284;2022-08-21T06:56:43;22.80;90.90
18126;DHT22;53956;52.442;13.284;2022-08-21T06:59:09;23.00;90.70
18126;DHT22;53956;52.442;13.284;2022-08-21T07:01:37;23.20;90.30
18126;DHT22;53956;52.442;13.284;2022-08-21T07:04:12;23.20;90.40
18126;DHT22;53956;52.442;13.284;2022-08-21T07:06:39;23.40;90.60
18126;DHT22;53956;52.442;13.284;2022-08-21T07:09:05;23.60;89.40
18126;DHT22;53956;52.442;13.284;2022-08-21T07:11:32;23.70;86.80
18126;DHT22;53956;52.442;13.284;2022-08-21T07:13:59;23.80;86.20
18126;DHT22;53956;52.442;13.284;2022-08-21T07:16:25;23.80;86.50
18126;DHT22;53956;52.442;13.284;2022-08-21T07:18:52;24.00;86.30
18126;DHT22;53956;52.442;13.284;2022-08-21T07:21:20;24.00;85.40
18126;DHT22;53956;52.442;13.284;2022-08-21T07:23:49;24.00;85.40
18126;DHT22;53956;52.442;13.284;2022-08-21T07:26:18;24.10;85.60
18126;DHT22;53956;52.442;13.284;2022-08-21T07:28:46;24.20;85.40
18126;DHT22;53956;52.442;13.284;2022-08-21T07:31:15;24.10;85.70
18126;DHT22;53956;52.442;13.284;2022-08-21T07:33:42;24.20;84.50
18126;DHT22;53956;52.442;13.284;2022-08-21T07:36:09;24.30;84.30
18126;DHT22;53956;52.442;13.284;2022-08-21T07:38:37;24.50;83.80
18126;DHT22;53956;52.442;13.284;2022-08-21T07:41:13;24.30;84.10
18126;DHT22;53956;52.442;13.284;2022-08-21T07:43:41;24.50;84.10
18126;DHT22;53956;52.442;13.284;2022-08-21T07:46:08;24.50;83.70
18126;DHT22;53956;52.442;13.284;2022-08-21T07:48:34;24.70;82.80
18126;DHT22;53956;52.442;13.284;2022-08-21T07:51:04;24.80;82.20
18126;DHT22;53956;52.442;13.284;2022-08-21T07:53:32;24.90;81.10
18126;DHT22;53956;52.442;13.284;2022-08-21T07:56:00;25.00;80.90
18126;DHT22;53956;52.442;13.284;2022-08-21T07:58:27;25.10;80.20
18126;DHT22;53956;52.442;13.284;2022-08-21T08:00:54;25.20;80.20
18126;DHT22;53956;52.442;13.284;2022-08-21T08:03:20;25.40;79.40
18126;DHT22;53956;52.442;13.284;2022-08-21T08:05:47;25.40;79.00
18126;DHT22;53956;52.442;13.284;2022-08-21T08:08:14;25.60;77.90
18126;DHT22;53956;52.442;13.284;2022-08-21T08:10:40;25.40;76.10
18126;DHT22;53956;52.442;13.284;2022-08-21T08:13:09;25.40;77.80
18126;DHT22;53956;52.442;13.284;2022-08-21T08:15:36;25.60;77.20
18126;DHT22;53956;52.442;13.284;2022-08-21T08:18:03;25.70;75.70
18126;DHT22;53956;52.442;13.284;2022-08-21T08:20:30;25.80;76.10
18126;DHT22;53956;52.442;13.284;2022-08-21T08:22:56;25.90;76.00
18126;DHT22;53956;52.442;13.284;2022-08-21T08:25:24;25.80;74.00
18126;DHT22;53956;52.442;13.284;2022-08-21T08:27:51;25.60;74.50
18126;DHT22;53956;52.442;13.284;2022-08-21T08:30:20;25.60;73.20
18126;DHT22;53956;52.442;13.284;2022-08-21T08:32:47;25.30;70.80
18126;DHT22;53956;52.442;13.284;2022-08-21T08:35:15;25.00;72.90
18126;DHT22;53956;52.442;13.284;2022-08-21T08:37:42;25.10;73.40
18126;DHT22;53956;52.442;13.284;2022-08-21T08:40:13;25.20;71.80
18126;DHT22;53956;52.442;13.284;2022-08-21T08:42:40;25.20;73.80
18126;DHT22;53956;52.442;13.284;2022-08-21T08:45:09;25.20;74.30
18126;DHT22;53956;52.442;13.284;2022-08-21T08:47:40;25.00;73.00
18126;DHT22;53956;52.442;13.284;2022-08-21T08:50:13;25.00;73.50
18126;DHT22;53956;52.442;13.284;2022-08-21T08:52:47;25.10;74.00
18126;DHT22;53956;52.442;13.284;2022-08-21T08:55:18;25.00;74.80
18126;DHT22;53956;52.442;13.284;2022-08-21T08:57:48;24.90;74.60
18126;DHT22;53956;52.442;13.284;2022-08-21T09:00:17;25.00;73.60
18126;DHT22;53956;52.442;13.284;2022-08-21T09:02:47;24.90;74.20
18126;DHT22;53956;52.442;13.284;2022-08-21T09:05:21;24.90;73.70
18126;DHT22;53956;52.442;13.284;2022-08-21T09:07:58;24.80;73.20
18126;DHT22;53956;52.442;13.284;2022-08-21T09:10:37;24.80;71.80
18126;DHT22;53956;52.442;13.284;2022-08-21T09:13:10;24.80;73.50
18126;DHT22;53956;52.442;13.284;2022-08-21T09:15:51;24.80;74.90
18126;DHT22;53956;52.442;13.284;2022-08-21T09:18:30;24.80;74.50
18126;DHT22;53956;52.442;13.284;2022-08-21T09:21:09;24.90;73.40
18126;DHT22;53956;52.442;13.284;2022-08-21T09:23:46;25.00;73.40
18126;DHT22;53956;52.442;13.284;2022-08-21T09:26:18;24.70;71.20
18126;DHT22;53956;52.442;13.284;2022-08-21T09:28:46;24.80;71.10
18126;DHT22;53956;52.442;13.284;2022-08-21T09:31:23;24.80;71.20
18126;DHT22;53956;52.442;13.284;2022-08-21T09:33:57;24.90;72.40
18126;DHT22;53956;52.442;13.284;2022-08-21T09:36:27;24.70;69.60
18126;DHT22;53956;52.442;13.284;2022-08-21T09:38:55;24.50;69.10
18126;DHT22;53956;52.442;13.284;2022-08-21T09:41:28;24.60;71.10
18126;DHT22;53956;52.442;13.284;2022-08-21T09:43:57;24.70;71.00
18126;DHT22;53956;52.442;13.284;2022-08-21T09:46:25;24.60;68.50
18126;DHT22;53956;52.442;13.284;2022-08-21T09:48:55;24.60;68.00
18126;DHT22;53956;52.442;13.284;2022-08-21T09:51:24;24.70;68.60
18126;DHT22;53956;52.442;13.284;2022-08-21T09:53:55;24.90;69.00
18126;DHT22;53956;52.442;13.284;2022-08-21T09:56:28;24.90;68.80
18126;DHT22;53956;52.442;13.284;2022-08-21T09:59:17;25.00;68.00
18126;DHT22;53956;52.442;13.284;2022-08-21T10:01:47;25.10;66.10
18126;DHT22;53956;52.442;13.284;2022-08-21T10:04:15;25.20;66.30
18126;DHT22;53956;52.442;13.284;2022-08-21T10:06:45;25.40;65.10
18126;DHT22;53956;52.442;13.284;2022-08-21T10:09:13;25.20;64.70
18126;DHT22;53956;52.442;13.284;2022-08-21T10:11:44;25.40;65.30
18126;DHT22;53956;52.442;13.284;2022-08-21T10:14:20;25.40;64.80
18126;DHT22;53956;52.442;13.284;2022-08-21T10:16:58;25.50;64.80
18126;DHT22;53956;52.442;13.284;2022-08-21T10:19:34;25.70;64.70
18126;DHT22;53956;52.442;13.284;2022-08-21T10:22:11;25.70;63.70
18126;DHT22;53956;52.442;13.284;2022-08-21T10:24:44;25.80;64.00
18126;DHT22;53956;52.442;13.284;2022-08-21T10:27:19;25.60;62.50
18126;DHT22;53956;52.442;13.284;2022-08-21T10:29:55;25.50;63.00
18126;DHT22;53956;52.442;13.284;2022-08-21T10:32:34;25.70;63.50
18126;DHT22;53956;52.442;13.284;2022-08-21T10:35:10;25.50;60.60
18126;DHT22;53956;52.442;13.284;2022-08-21T10:37:45;25.10;60.90
18126;DHT22;53956;52.442;13.284;2022-08-21T10:40:22;25.20;62.90
18126;DHT22;53956;52.442;13.284;2022-08-21T10:42:58;25.30;60.50
18126;DHT22;53956;52.442;13.284;2022-08-21T10:45:38;25.40;61.40
18126;DHT22;53956;52.442;13.284;2022-08-21T10:50:57;25.90;62.00
18126;DHT22;53956;52.442;13.284;2022-08-21T10:53:41;25.80;60.30
18126;DHT22;53956;52.442;13.284;2022-08-21T10:56:16;25.80;59.40
18126;DHT22;53956;52.442;13.284;2022-08-21T10:58:49;26.00;59.50
18126;DHT22;53956;52.442;13.284;2022-08-21T11:01:26;25.90;59.00
18126;DHT22;53956;52.442;13.284;2022-08-21T11:04:04;26.00;60.60
18126;DHT22;53956;52.442;13.284;2022-08-21T11:06:39;26.30;61.00
18126;DHT22;53956;52.442;13.284;2022-08-21T11:09:11;26.30;58.50
18126;DHT22;53956;52.442;13.284;2022-08-21T11:11:42;26.30;57.70
18126;DHT22;53956;52.442;13.284;2022-08-21T11:14:21;26.50;56.10
18126;DHT22;53956;52.442;13.284;2022-08-21T11:16:55;26.30;57.40
18126;DHT22;53956;52.442;13.284;2022-08-21T11:19:28;26.40;55.60
18126;DHT22;53956;52.442;13.284;2022-08-21T11:22:03;26.50;54.40
18126;DHT22;53956;52.442;13.284;2022-08-21T11:24:41;26.50;53.50
18126;DHT22;53956;52.442;13.284;2022-08-21T11:27:21;26.50;53.70
18126;DHT22;53956;52.442;13.284;2022-08-21T11:29:52;26.50;53.90
18126;DHT22;53956;52.442;13.284;2022-08-21T11:32:42;26.40;53.40
18126;DHT22;53956;52.442;13.284;2022-08-21T11:35:20;26.30;54.20
18126;DHT22;53956;52.442;13.284;2022-08-21T11:38:07;26.20;54.00
18126;DHT22;53956;52.442;13.284;2022-08-21T11:40:48;26.20;54.60
18126;DHT22;53956;52.442;13.284;2022-08-21T11:43:24;26.10;55.40
18126;DHT22;53956;52.442;13.284;2022-08-21T11:45:56;26.00;55.80
18126;DHT22;53956;52.442;13.284;2022-08-21T11:48:36;26.00;56.30
18126;DHT22;53956;52.442;13.284;2022-08-21T11:51:13;26.00;56.60
18126;DHT22;53956;52.442;13.284;2022-08-21T11:53:48;26.00;55.90
18126;DHT22;53956;52.442;13.284;2022-08-21T11:56:20;26.00;55.40
18126;DHT22;53956;52.442;13.284;2022-08-21T11:58:50;26.20;55.70
18126;DHT22;53956;52.442;13.284;2022-08-21T12:01:21;26.30;56.20
18126;DHT22;53956;52.442;13.284;2022-08-21T12:03:54;26.20;55.00
18126;DHT22;53956;52.442;13.284;2022-08-21T12:06:30;26.20;55.30
18126;DHT22;53956;52.442;13.284;2022-08-21T12:09:01;26.20;56.20
18126;DHT22;53956;52.442;13.284;2022-08-21T12:11:28;26.10;56.20
18126;DHT22;53956;52.442;13.284;2022-08-21T12:13:58;26.20;56.60
18126;DHT22;53956;52.442;13.284;2022-08-21T12:16:30;26.30;55.20
18126;DHT22;53956;52.442;13.284;2022-08-21T12:19:04;26.10;55.40
18126;DHT22;53956;52.442;13.284;2022-08-21T12:21:32;26.00;55.00
18126;DHT22;53956;52.442;13.284;2022-08-21T12:24:05;26.10;56.20
18126;DHT22;53956;52.442;13.284;2022-08-21T12:26:49;26.10;56.70
18126;DHT22;53956;52.442;13.284;2022-08-21T12:29:22;26.40;55.80
18126;DHT22;53956;52.442;13.284;2022-08-21T12:31:54;26.40;56.10
18126;DHT22;53956;52.442;13.284;2022-08-21T12:34:24;26.40;55.80
18126;DHT22;53956;52.442;13.284;2022-08-21T12:36:54;26.60;55.20
18126;DHT22;53956;52.442;13.284;2022-08-21T12:39:26;26.40;53.50
18126;DHT22;53956;52.442;13.284;2022-08-21T12:42:04;26.60;55.30
18126;DHT22;53956;52.442;13.284;2022-08-21T12:44:38;26.30;55.60
18126;DHT22;53956;52.442;13.284;2022-08-21T12:47:15;26.50;54.60
18126;DHT22;53956;52.442;13.284;2022-08-21T12:49:51;26.40;54.10
18126;DHT22;53956;52.442;13.284;2022-08-21T12:52:21;26.50;54.40
18126;DHT22;53956;52.442;13.284;2022-08-21T12:54:50;26.30;54.60
18126;DHT22;53956;52.442;13.284;2022-08-21T12:57:19;26.20;53.50
18126;DHT22;53956;52.442;13.284;2022-08-21T12:59:52;26.10;54.30
18126;DHT22;53956;52.442;13.284;2022-08-21T13:02:22;26.10;56.00
18126;DHT22;53956;52.442;13.284;2022-08-21T13:04:49;26.10;55.70
18126;DHT22;53956;52.442;13.284;2022-08-21T13:07:22;26.00;55.60
18126;DHT22;53956;52.442;13.284;2022-08-21T13:09:54;25.90;55.90
18126;DHT22;53956;52.442;13.284;2022-08-21T13:12:22;25.80;56.40
18126;DHT22;53956;52.442;13.284;2022-08-21T13:14:50;25.70;56.00
18126;DHT22;53956;52.442;13.284;2022-08-21T13:17:19;25.70;56.40
18126;DHT22;53956;52.442;13.284;2022-08-21T13:19:56;25.70;56.80
18126;DHT22;53956;52.442;13.284;2022-08-21T13:22:24;25.80;56.90
18126;DHT22;53956;52.442;13.284;2022-08-21T13:24:52;25.90;57.20
18126;DHT22;53956;52.442;13.284;2022-08-21T13:27:24;25.90;58.20
18126;DHT22;53956;52.442;13.284;2022-08-21T13:30:07;25.90;58.60
18126;DHT22;53956;52.442;13.284;2022-08-21T13:32:35;25.80;58.10
18126;DHT22;53956;52.442;13.284;2022-08-21T13:35:14;25.90;58.60
18126;DHT22;53956;52.442;13.284;2022-08-21T13:37:42;25.90;58.90
18126;DHT22;53956;52.442;13.284;2022-08-21T13:40:13;26.10;59.60
18126;DHT22;53956;52.442;13.284;2022-08-21T13:42:42;26.10;59.10
18126;DHT22;53956;52.442;13.284;2022-08-21T13:45:13;25.90;58.30
18126;DHT22;53956;52.442;13.284;2022-08-21T13:47:40;25.60;59.10
18126;DHT22;53956;52.442;13.284;2022-08-21T13:50:08;25.70;58.60
18126;DHT22;53956;52.442;13.284;2022-08-21T13:52:47;25.80;59.50
18126;DHT22;53956;52.442;13.284;2022-08-21T13:55:16;25.90;59.30
18126;DHT22;53956;52.442;13.284;2022-08-21T13:57:43;25.80;59.80
18126;DHT22;53956;52.442;13.284;2022-08-21T14:00:12;25.70;59.70
18126;DHT22;53956;52.442;13.284;2022-08-21T14:02:42;25.70;60.10
18126;DHT22;53956;52.442;13.284;2022-08-21T14:05:15;25.60;59.40
18126;DHT22;53956;52.442;13.284;2022-08-21T14:07:43;25.60;59.50
18126;DHT22;53956;52.442;13.284;2022-08-21T14:10:14;25.60;59.80
18126;DHT22;53956;52.442;13.284;2022-08-21T14:12:46;25.60;61.00
18126;DHT22;53956;52.442;13.284;2022-08-21T14:15:15;25.80;59.90
18126;DHT22;53956;52.442;13.284;2022-08-21T14:17:43;25.70;59.00
18126;DHT22;53956;52.442;13.284;2022-08-21T14:20:12;25.80;59.90
18126;DHT22;53956;52.442;13.284;2022-08-21T14:22:42;25.90;59.50
18126;DHT22;53956;52.442;13.284;2022-08-21T14:25:12;25.90;59.40
18126;DHT22;53956;52.442;13.284;2022-08-21T14:27:44;25.90;59.10
18126;DHT22;53956;52.442;13.284;2022-08-21T14:30:18;25.90;59.70
18126;DHT22;53956;52.442;13.284;2022-08-21T14:32:46;26.00;59.40
18126;DHT22;53956;52.442;13.284;2022-08-21T14:35:13;26.00;58.60
18126;DHT22;53956;52.442;13.284;2022-08-21T14:37:43;26.00;59.00
18126;DHT22;53956;52.442;13.284;2022-08-21T14:40:11;26.00;59.00
18126;DHT22;53956;52.442;13.284;2022-08-21T14:42:40;26.00;58.60
18126;DHT22;53956;52.442;13.284;2022-08-21T14:45:13;26.10;59.50
18126;DHT22;53956;52.442;13.284;2022-08-21T14:47:41;26.00;59.20
18126;DHT22;53956;52.442;13.284;2022-08-21T14:50:09;25.90;59.50
18126;DHT22;53956;52.442;13.284;2022-08-21T14:52:36;25.90;60.30
18126;DHT22;53956;52.442;13.284;2022-08-21T14:55:04;25.80;59.00
18126;DHT22;53956;52.442;13.284;2022-08-21T14:57:32;25.80;59.20
18126;DHT22;53956;52.442;13.284;2022-08-21T14:59:59;25.80;59.10
18126;DHT22;53956;52.442;13.284;2022-08-21T15:02:27;25.80;59.40
18126;DHT22;53956;52.442;13.284;2022-08-21T15:04:54;25.80;59.90
18126;DHT22;53956;52.442;13.284;2022-08-21T15:07:21;25.70;59.60
18126;DHT22;53956;52.442;13.284;2022-08-21T15:09:47;25.70;59.60
18126;DHT22;53956;52.442;13.284;2022-08-21T15:12:14;25.80;59.50
18126;DHT22;53956;52.442;13.284;2022-08-21T15:14:41;25.80;60.00
18126;DHT22;53956;52.442;13.284;2022-08-21T15:17:09;25.80;60.70
18126;DHT22;53956;52.442;13.284;2022-08-21T15:19:38;25.70;60.50
18126;DHT22;53956;52.442;13.284;2022-08-21T15:22:05;25.80;60.30
18126;DHT22;53956;52.442;13.284;2022-08-21T15:24:32;25.80;60.40
18126;DHT22;53956;52.442;13.284;2022-08-21T15:27:00;25.70;59.80
18126;DHT22;53956;52.442;13.284;2022-08-21T15:29:28;25.70;59.60
18126;DHT22;53956;52.442;13.284;2022-08-21T15:31:57;25.70;58.40